Create Custom Reports and Graphics: Custom Report

Siberia 8700'

Squaw Valley

11/19/19 4:15 PM (-08:00)
Updated Every 15 Minutes
Temp 29.9 °F   20.7
RH 80 %   46
Wet Bulb 27.6 °F   10.5
Dew Pt 24.4 °F   1.2
Wind Dir SW | 225 °
Wind Spd 27.0 mph   0.4
Wind Gust 37.1 mph   2.3
WindChill 16.4 °F   27.3
Daily Min Temp 29.9 °F   17.1
Daily Max Temp 40.2 °F   18.1

Last 24 Hours

Squaw-Siberia 8700'

Hourly Data | America/Los_Angeles
as of 11/19/19 4:29 PM PST
Date & Time Temp (°F) RH (%) Dew Pt (°F) Wet Bulb (°F) Wind Dir (°) Wind Spd (mph) Wind Gust (mph) WindChill (°F) Daily Min Temp (°F) Daily Max Temp (°F)
11/19/19 - 1600 30.5 89 27.7 29.3 WSW | 241 28.9 43.2 17.8 30.3 40.2
11/19/19 - 1500 32.9 81 27.6 30.6 WSW | 242 28.5 42.0 20.6 32.2 40.2
11/19/19 - 1400 32.7 98 32.2 32.5 WSW | 237 27.3 42.4 20.2 32.7 40.2
11/19/19 - 1300 34.9 92 33.0 34.0 WSW | 238 26.6 39.3 23.1 33.4 40.2
11/19/19 - 1200 35.7 89 32.7 34.3 WSW | 245 28.2 42.6 24.4 33.4 40.2
11/19/19 - 1100 35.4 89 32.5 34.0 SW | 234 27.8 39.4 22.2 33.4 40.2
11/19/19 - 1000 35.7 92 33.5 34.6 WSW | 252 30.9 42.7 22.2 33.4 40.2
11/19/19 - 0900 35.2 95 33.9 34.6 SW | 235 36.6 49.1 19.9 33.4 40.2
11/19/19 - 0800 33.6 92 31.5 32.7 SW | 232 38.4 56.1 18.6 33.4 40.2
11/19/19 - 0700 34.4 82 29.5 32.2 WSW | 238 41.5 58.4 19.6 34.3 40.2
11/19/19 - 0600 35.0 74 27.6 31.7 WSW | 241 42.2 59.8 19.9 34.8 40.2
11/19/19 - 0500 35.3 64 24.5 30.7 SW | 234 45.8 65.4 19.6 34.9 40.2
11/19/19 - 0400 35.6 52 19.8 29.3 WSW | 242 45.8 71.5 21.3 35.5 40.2
11/19/19 - 0300 38.0 45 18.8 30.4 WSW | 243 47.4 69.3 24.9 37.8 40.2
11/19/19 - 0200 40.0 41 18.3 31.4 SW | 236 41.1 52.7 26.3 39.2 40.1
11/19/19 - 0100 39.8 41 18.0 31.1 WSW | 239 38.7 50.9 26.6 39.3 39.9
11/19/19 - 0000 39.8 45 20.0 31.7 WSW | 242 35.4 50.6 27.6 39.1 58.3
11/18/19 - 2300 41.0 42 19.5 32.2 SW | 235 33.9 49.6 29.9 40.5 58.3
11/18/19 - 2200 42.3 41 20.2 33.1 SW | 235 29.4 40.0 32.4 42.2 58.3
11/18/19 - 2100 43.5 42 22.1 34.3 SW | 228 26.4 38.5 34.9 43.4 58.3
11/18/19 - 2000 45.2 37 20.8 34.8 SW | 222 23.7 30.7 37.2 44.8 58.3
11/18/19 - 1900 46.6 34 19.8 35.3 SW | 229 23.3 33.6 38.2 45.6 58.3
11/18/19 - 1800 46.5 37 21.6 35.7 SW | 220 23.2 29.3 38.7 46.2 58.3
11/18/19 - 1700 47.1 42 25.1 37.1 SW | 226 23.9 34.8 42.3 47.0 58.3
11/18/19 - 1600 50.9 32 22.2 38.1 WSW | 237 25.1 32.8 46.5 47.0 58.3
Max 50.9 98 33.9 38.1 - 47.4 71.5 46.5 47.0 58.3
Avg 38.7 63 25.3 33.0 - 32.8 46.6 27.0 - -
Min 30.5 32 18.0 29.3 - 23.2 29.3 17.8 30.3 39.9

Last 30 Days

Squaw-Siberia 8700'

Daily Data | America/Los_Angeles
as of 11/19/19 4:29 PM PST
Date Daily Max Temp (°F) Max Temp Time Daily Min Temp (°F) Min Temp Time Wind Spd (mph) Daily Max Wind (mph) Max Wind Time Max Wind Dir (°) Wet Bulb (°F) WetB Hrs <28F (hrs)
11/18/19 58.3 0045 39.1 2351 21.6 50.6 2320 SW | 233 36.8 0.0
11/17/19 62.2 1201 39.0 0005 15.8 39.4 0042 NE | 45 37.3 0.0
11/16/19 46.7 1504 35.6 0001 21.2 35.6 0110 E | 86 31.5 0.0
11/15/19 46.0 1436 32.2 0422 19.5 49.0 0115 SSW | 196 30.8 2.0
11/14/19 49.3 1359 35.0 2250 20.9 46.3 2018 SSE | 163 33.8 0.0
11/13/19 52.9 1408 42.9 2352 13.8 27.9 0829 SSW | 203 34.9 0.0
11/12/19 53.7 1315 44.0 0517 17.4 34.9 1234 SW | 232 35.6 0.0
11/11/19 49.1 2048 37.5 0626 19.1 44.8 0026 ENE | 77 34.7 0.0
11/10/19 50.0 1418 39.8 2359 16.6 45.7 2244 ENE | 69 33.7 0.0
11/9/19 58.1 1405 42.9 2329 8.0 26.5 2035 E | 80 35.0 0.0
11/8/19 56.3 1343 42.6 0345 11.5 23.4 1148 SSW | 200 34.5 0.0
11/7/19 53.6 1324 41.6 0220 10.0 33.8 0119 ENE | 59 34.1 0.0
11/6/19 51.7 1213 42.8 2308 8.6 30.7 2251 E | 79 34.3 0.0
11/5/19 51.4 1305 39.8 0625 16.3 39.5 0848 E | 80 33.2 0.0
11/4/19 50.1 1311 41.2 2231 20.9 36.4 0936 E | 89 33.4 0.0
11/3/19 58.8 1318 43.4 0517 4.9 16.5 1550 NE | 56 36.0 0.0
11/2/19 56.4 1411 41.5 0004 8.6 24.5 1227 SW | 226 34.3 0.0
11/1/19 45.9 1558 38.1 0850 23.0 40.8 0729 ENE | 73 28.9 9.7
10/31/19 54.3 1242 34.1 0049 10.4 35.6 2154 ENE | 77 29.6 13.5
10/30/19 45.6 2319 17.2 0001 14.4 32.6 0324 ENE | 62 20.6 24.0
10/29/19 33.0 0752 16.7 2228 31.0 79.4 1819 ENE | 61 19.6 24.0
10/28/19 44.4 1516 16.6 0119 22.3 66.1 0054 ENE | 71 22.3 20.0
10/27/19 37.3 0001 13.6 0755 54.4 97.3 1710 ENE | 67 15.5 24.0
10/26/19 55.4 1338 37.3 0001 20.9 51.9 2203 SW | 228 35.1 0.0
10/25/19 60.9 1346 45.8 0004 14.0 39.5 0001 NE | 47 37.6 0.0
10/24/19 47.1 1457 39.2 2016 29.5 56.8 2140 ENE | 62 31.8 0.0
Max 62.2 - 45.8 - 54.4 97.3 - - 37.6 24.0
Avg - - - - 18.3 - - - 31.7 -
Min 33.0 - 13.6 - 4.9 16.5 - - 15.5 0.0
Calm: 0.0%
Calm: 0.2%